Time;durP1;ratioP1;P1;durP2;ratioP2;P2;SDS_P1;SDS_P2;PMS_P1;PMS_P2;Temp;Humidity;BMP_temperature;BMP_pressure;BME280_temperature;BME280_humidity;BME280_pressure;Samples;Min_cycle;Max_cycle;Signal;HPM_P1;HPM_P2
2020/12/23 00:00:14;;;;;;;0.63;0.50;;;;;;;14.46;100.00;98190.41;5089174;28;20200;-75
2020/12/23 00:02:42;;;;;;;2.07;0.63;;;;;;;14.44;100.00;98205.91;5087797;28;20224;-75
2020/12/23 00:05:10;;;;;;;0.60;0.50;;;;;;;14.43;100.00;98190.03;5077298;28;20222;-76
2020/12/23 00:07:37;;;;;;;1.87;0.50;;;;;;;14.47;100.00;98189.34;5076199;28;20216;-76
2020/12/23 00:10:05;;;;;;;0.57;0.50;;;;;;;14.59;100.00;98189.47;5087890;28;20207;-75
2020/12/23 00:12:32;;;;;;;1.07;0.50;;;;;;;14.56;100.00;98197.94;5086848;28;20208;-76
2020/12/23 00:14:59;;;;;;;2.13;0.50;;;;;;;14.66;100.00;98196.41;5084093;28;20660;-75
2020/12/23 00:17:25;;;;;;;1.03;0.57;;;;;;;14.79;100.00;98198.13;5071966;28;20194;-77
2020/12/23 00:19:53;;;;;;;0.70;0.50;;;;;;;14.61;100.00;98195.41;5077620;28;20215;-76
2020/12/23 00:22:20;;;;;;;0.63;0.53;;;;;;;14.83;100.00;98193.94;5077864;28;20196;-76
2020/12/23 00:24:47;;;;;;;0.50;0.50;;;;;;;14.91;100.00;98185.59;5087884;28;20213;-75
2020/12/23 00:27:13;;;;;;;0.50;0.50;;;;;;;14.94;100.00;98195.91;5091556;28;20195;-77
2020/12/23 00:29:40;;;;;;;0.47;0.40;;;;;;;14.93;100.00;98184.31;5081049;28;20676;-75
2020/12/23 00:32:07;;;;;;;0.67;0.60;;;;;;;14.93;100.00;98180.81;5082871;28;20681;-76
2020/12/23 00:34:34;;;;;;;1.33;0.60;;;;;;;14.91;100.00;98186.44;5082801;28;20714;-76
2020/12/23 00:37:02;;;;;;;1.17;0.60;;;;;;;15.04;100.00;98196.22;5074925;28;20250;-75
2020/12/23 00:39:28;;;;;;;1.97;0.50;;;;;;;15.07;100.00;98201.13;5091812;28;20199;-75
2020/12/23 00:41:55;;;;;;;0.70;0.70;;;;;;;14.95;100.00;98197.53;5089908;28;20273;-77
2020/12/23 00:44:22;;;;;;;2.67;0.70;;;;;;;15.13;100.00;98198.34;5073742;28;20267;-76
2020/12/23 00:46:51;;;;;;;1.60;0.40;;;;;;;15.13;100.00;98189.47;5089408;28;20208;-75
2020/12/23 00:49:18;;;;;;;0.60;0.53;;;;;;;15.23;100.00;98192.44;5073603;28;20201;-75
2020/12/23 00:51:45;;;;;;;1.43;0.40;;;;;;;15.23;100.00;98192.44;5076417;28;20210;-75
2020/12/23 00:54:13;;;;;;;0.40;0.40;;;;;;;14.98;100.00;98189.00;5088829;28;20626;-75
2020/12/23 00:56:39;;;;;;;0.53;0.50;;;;;;;15.17;100.00;98194.19;5087762;28;20201;-75
2020/12/23 00:59:06;;;;;;;1.33;0.70;;;;;;;15.17;100.00;98194.19;5089554;28;20687;-75
2020/12/23 01:01:33;;;;;;;0.40;0.37;;;;;;;15.31;100.00;98192.97;5085804;28;20201;-76
2020/12/23 01:04:00;;;;;;;0.40;0.40;;;;;;;15.26;100.00;98195.53;5074401;28;20229;-77
2020/12/23 01:06:26;;;;;;;1.73;0.70;;;;;;;15.12;100.00;98185.13;5081775;28;20200;-75
2020/12/23 01:08:53;;;;;;;0.73;0.50;;;;;;;15.20;100.00;98193.72;5086368;28;20197;-75
2020/12/23 01:11:22;;;;;;;1.13;0.40;;;;;;;15.37;100.00;98199.34;5087912;28;20677;-77
2020/12/23 01:13:48;;;;;;;2.07;0.53;;;;;;;15.15;100.00;98211.59;5093153;28;20224;-76
2020/12/23 01:16:20;;;;;;;0.60;0.57;;;;;;;15.00;100.00;98198.50;5083044;28;20619;-77
2020/12/23 01:18:47;;;;;;;0.60;0.60;;;;;;;15.25;100.00;98196.53;5075940;28;20185;-75
2020/12/23 01:21:14;;;;;;;0.67;0.60;;;;;;;15.18;100.00;98200.34;5094772;28;20197;-77
2020/12/23 01:23:42;;;;;;;0.50;0.50;;;;;;;15.38;100.00;98204.50;5093198;28;20587;-78
2020/12/23 01:26:09;;;;;;;0.40;0.40;;;;;;;15.25;100.00;98210.00;5094471;28;20207;-75
2020/12/23 01:28:36;;;;;;;0.50;0.50;;;;;;;15.29;100.00;98205.00;5093089;28;20201;-75
2020/12/23 01:31:05;;;;;;;0.50;0.40;;;;;;;15.41;100.00;98204.03;5076543;28;20201;-75
2020/12/23 01:33:32;;;;;;;0.50;0.40;;;;;;;15.21;100.00;98199.91;5082046;28;20228;-76
2020/12/23 01:35:58;;;;;;;0.93;0.60;;;;;;;15.11;100.00;98196.94;5083331;28;20224;-76
2020/12/23 01:38:25;;;;;;;1.63;0.50;;;;;;;15.13;100.00;98198.34;5090049;28;20197;-76
2020/12/23 01:40:59;;;;;;;0.90;0.70;;;;;;;15.19;100.00;98194.75;5092460;28;20610;-76
2020/12/23 01:43:26;;;;;;;0.40;0.40;;;;;;;15.27;100.00;98199.84;5082331;28;20551;-78
2020/12/23 01:45:54;;;;;;;1.90;0.40;;;;;;;15.27;100.00;98199.84;5071221;28;20204;-77
2020/12/23 01:48:22;;;;;;;1.00;0.90;;;;;;;15.25;100.00;98201.13;5076349;28;20535;-77
2020/12/23 01:50:49;;;;;;;0.43;0.43;;;;;;;15.35;100.00;98210.31;5093912;28;20208;-77
2020/12/23 01:53:17;;;;;;;1.57;0.40;;;;;;;15.24;100.00;98196.78;5094040;28;20220;-76
2020/12/23 01:55:45;;;;;;;0.40;0.40;;;;;;;15.38;100.00;98196.44;5093927;28;20220;-77
2020/12/23 01:58:12;;;;;;;0.47;0.40;;;;;;;15.37;100.00;98199.34;5088519;28;20246;-77
2020/12/23 02:00:39;;;;;;;0.57;0.40;;;;;;;15.46;100.00;98193.41;5073385;28;20720;-78
2020/12/23 02:03:09;;;;;;;0.33;0.33;;;;;;;15.53;100.00;98183.41;5093946;28;20216;-77
2020/12/23 02:05:36;;;;;;;0.63;0.50;;;;;;;15.29;100.00;98188.88;5093844;28;20185;-77
2020/12/23 02:08:03;;;;;;;0.50;0.50;;;;;;;15.59;100.00;98181.66;5094138;28;20201;-77
2020/12/23 02:10:31;;;;;;;0.40;0.40;;;;;;;15.53;100.00;98175.31;5085294;28;20261;-77
2020/12/23 02:12:58;;;;;;;0.73;0.40;;;;;;;15.57;100.00;98181.06;5073441;28;20720;-79
2020/12/23 02:15:25;;;;;;;0.40;0.40;;;;;;;15.58;100.00;98178.16;5073289;28;20229;-77
2020/12/23 02:17:52;;;;;;;0.50;0.40;;;;;;;15.54;100.00;98174.28;5071814;28;20205;-77
2020/12/23 02:20:20;;;;;;;0.53;0.40;;;;;;;15.70;100.00;98170.94;5087953;28;20224;-77
2020/12/23 02:22:48;;;;;;;0.43;0.40;;;;;;;15.58;100.00;98171.94;5093260;28;20221;-77
2020/12/23 02:25:15;;;;;;;1.27;0.30;;;;;;;15.55;100.00;98170.53;5093472;28;20645;-78
2020/12/23 02:27:43;;;;;;;0.30;0.30;;;;;;;15.64;100.00;98169.16;5072060;28;20205;-77
2020/12/23 02:30:11;;;;;;;1.07;0.47;;;;;;;15.60;100.00;98151.03;5084256;28;20228;-77
2020/12/23 02:32:38;;;;;;;0.50;0.50;;;;;;;15.64;100.00;98150.34;5092128;28;20221;-77
2020/12/23 02:35:06;;;;;;;0.93;0.40;;;;;;;15.64;100.00;98142.25;5086478;28;20212;-76
2020/12/23 02:37:33;;;;;;;0.37;0.33;;;;;;;15.78;100.00;98142.88;5093968;28;20196;-78
2020/12/23 02:40:00;;;;;;;2.27;0.43;;;;;;;15.75;100.00;98152.22;5089826;28;20216;-77
2020/12/23 02:42:27;;;;;;;0.30;0.30;;;;;;;15.79;100.00;98139.13;5068280;28;20673;-77
2020/12/23 02:44:56;;;;;;;0.40;0.40;;;;;;;15.86;100.00;98137.97;5092195;28;20204;-77
2020/12/23 02:47:23;;;;;;;0.83;0.30;;;;;;;15.96;100.00;98129.34;5092946;28;20555;-77
2020/12/23 02:49:50;;;;;;;2.23;0.40;;;;;;;15.93;100.00;98133.34;5091332;28;20204;-77
2020/12/23 02:52:17;;;;;;;0.80;0.30;;;;;;;15.75;100.00;98119.94;5085104;28;20204;-77
2020/12/23 02:54:43;;;;;;;0.40;0.40;;;;;;;15.90;100.00;98114.94;5082954;28;20279;-77
2020/12/23 02:57:11;;;;;;;0.40;0.40;;;;;;;15.88;100.00;98122.44;5077545;28;20539;-77
2020/12/23 02:59:39;;;;;;;0.40;0.27;;;;;;;15.80;100.00;98125.44;5092520;28;20193;-78
2020/12/23 03:02:06;;;;;;;0.40;0.40;;;;;;;15.84;100.00;98115.03;5092616;28;20196;-76
2020/12/23 03:04:33;;;;;;;0.40;0.30;;;;;;;16.02;100.00;98105.03;5085517;28;20220;-77
2020/12/23 03:07:00;;;;;;;1.43;0.40;;;;;;;15.92;100.00;98103.94;5072998;28;20194;-77
2020/12/23 03:09:27;;;;;;;0.30;0.30;;;;;;;15.99;100.00;98118.09;5074639;28;20199;-77
2020/12/23 03:11:54;;;;;;;0.47;0.30;;;;;;;16.04;100.00;98116.38;5073800;28;20564;-77
2020/12/23 03:14:21;;;;;;;0.47;0.40;;;;;;;15.99;100.00;98112.72;5079455;28;20221;-77
2020/12/23 03:16:48;;;;;;;0.40;0.40;;;;;;;16.08;100.00;98112.16;5072223;28;20201;-77
2020/12/23 03:19:15;;;;;;;1.37;0.40;;;;;;;16.06;100.00;98116.16;5085915;28;20204;-79
2020/12/23 03:21:42;;;;;;;0.20;0.20;;;;;;;15.85;100.00;98100.56;5075766;28;20748;-77
2020/12/23 03:24:09;;;;;;;0.47;0.40;;;;;;;15.95;100.00;98109.69;5087524;28;20217;-76
2020/12/23 03:26:35;;;;;;;0.40;0.40;;;;;;;16.07;100.00;98104.31;5070303;28;20206;-77
2020/12/23 03:29:02;;;;;;;3.17;0.60;;;;;;;16.05;100.00;98103.75;5092588;28;20254;-78
2020/12/23 03:31:30;;;;;;;0.40;0.40;;;;;;;15.98;100.00;98111.09;5092161;28;20208;-77
2020/12/23 03:33:57;;;;;;;0.67;0.50;;;;;;;16.04;100.00;98113.69;5089177;28;20231;-77
2020/12/23 03:36:24;;;;;;;0.40;0.40;;;;;;;16.11;100.00;98102.81;5087337;28;20259;-77
2020/12/23 03:38:50;;;;;;;1.10;0.30;;;;;;;15.96;100.00;98094.38;5081179;28;20212;-77
2020/12/23 03:41:17;;;;;;;0.33;0.33;;;;;;;16.03;100.00;98100.44;5071181;28;20587;-78
2020/12/23 03:43:44;;;;;;;0.43;0.30;;;;;;;15.99;100.00;98091.19;5090054;28;20217;-77
2020/12/23 03:46:11;;;;;;;0.50;0.40;;;;;;;15.97;100.00;98079.84;5088075;28;20196;-76
2020/12/23 03:48:39;;;;;;;0.53;0.40;;;;;;;15.75;100.00;98084.97;5092006;28;20731;-78
2020/12/23 03:51:05;;;;;;;0.93;0.40;;;;;;;15.67;100.00;98079.94;5092007;28;20677;-77
2020/12/23 03:53:32;;;;;;;1.70;0.40;;;;;;;15.68;100.00;98075.34;5084445;28;20229;-76
2020/12/23 03:55:59;;;;;;;0.80;0.30;;;;;;;15.72;100.00;98085.44;5084438;28;20221;-77
2020/12/23 03:58:26;;;;;;;0.30;0.30;;;;;;;15.86;100.00;98086.03;5089375;28;20198;-77
2020/12/23 04:00:53;;;;;;;0.70;0.40;;;;;;;15.75;100.00;98078.78;5093621;28;20227;-76
2020/12/23 04:03:19;;;;;;;0.47;0.43;;;;;;;15.95;100.00;98079.28;5085742;28;20229;-77
2020/12/23 04:05:47;;;;;;;0.60;0.40;;;;;;;15.83;100.00;98081.09;5084513;28;20681;-77
2020/12/23 04:08:14;;;;;;;0.50;0.50;;;;;;;15.89;100.00;98085.56;5078992;28;20270;-78
2020/12/23 04:10:40;;;;;;;0.70;0.50;;;;;;;15.70;100.00;98084.03;5073414;28;20208;-77
2020/12/23 04:13:07;;;;;;;0.30;0.30;;;;;;;15.81;100.00;98069.78;5073479;28;20223;-78
2020/12/23 04:15:34;;;;;;;0.40;0.40;;;;;;;15.67;100.00;98069.16;5072764;28;20226;-77
2020/12/23 04:18:01;;;;;;;1.17;0.40;;;;;;;15.61;100.00;98070.06;5072347;28;20209;-77
2020/12/23 04:20:28;;;;;;;0.77;0.40;;;;;;;15.63;100.00;98077.91;5085041;28;20196;-77
2020/12/23 04:22:55;;;;;;;0.37;0.37;;;;;;;15.59;100.00;98069.50;5074759;28;20255;-78
2020/12/23 04:25:22;;;;;;;0.63;0.47;;;;;;;15.63;100.00;98067.16;5082525;28;20220;-77
2020/12/23 04:27:49;;;;;;;0.50;0.43;;;;;;;15.56;100.00;98066.44;5081963;28;20201;-77
2020/12/23 04:30:16;;;;;;;0.40;0.40;;;;;;;15.70;100.00;98059.81;5085446;28;20262;-78
2020/12/23 04:32:43;;;;;;;0.30;0.30;;;;;;;15.83;100.00;98060.41;5083126;28;20229;-77
2020/12/23 04:35:09;;;;;;;2.47;0.50;;;;;;;15.82;100.00;98053.41;5087185;28;20224;-77
2020/12/23 04:37:36;;;;;;;0.50;0.50;;;;;;;15.78;100.00;98054.91;5079927;28;20624;-78
2020/12/23 04:40:05;;;;;;;0.57;0.40;;;;;;;15.54;100.00;98057.78;5086600;28;20261;-77
2020/12/23 04:42:32;;;;;;;2.73;0.50;;;;;;;15.35;100.00;98058.91;5080106;28;20213;-78
2020/12/23 04:44:59;;;;;;;0.93;0.40;;;;;;;15.18;100.00;98045.25;5084396;28;20195;-77
2020/12/23 04:47:27;;;;;;;0.40;0.40;;;;;;;14.95;100.00;98045.16;5091616;28;20204;-78
2020/12/23 04:49:55;;;;;;;0.40;0.40;;;;;;;14.87;100.00;98044.66;5090601;28;20208;-77
2020/12/23 04:52:30;;;;;;;0.70;0.50;;;;;;;14.88;100.00;98032.88;5084191;28;20287;-78
2020/12/23 04:55:02;;;;;;;0.40;0.40;;;;;;;14.81;100.00;98027.59;5093142;28;20204;-78
2020/12/23 04:57:29;;;;;;;0.37;0.37;;;;;;;14.76;100.00;98029.31;5104906;28;20220;-77
2020/12/23 04:59:56;;;;;;;0.40;0.40;;;;;;;14.67;100.00;98033.34;5090824;28;20231;-76
2020/12/23 05:02:23;;;;;;;1.80;0.50;;;;;;;14.69;100.00;98036.66;5088712;28;20779;-76
2020/12/23 05:04:50;;;;;;;2.17;0.60;;;;;;;14.72;100.00;98041.56;5085312;28;20582;-76
2020/12/23 05:07:20;;;;;;;0.53;0.50;;;;;;;14.65;100.00;98043.50;5081825;28;20201;-77
2020/12/23 05:09:48;;;;;;;0.97;0.40;;;;;;;14.56;100.00;98047.53;5091874;28;20201;-77
2020/12/23 05:12:15;;;;;;;0.40;0.40;;;;;;;14.61;100.00;98037.78;5096409;28;20200;-77
2020/12/23 05:14:43;;;;;;;0.87;0.53;;;;;;;14.70;100.00;98033.72;5083298;28;20557;-77
2020/12/23 05:17:11;;;;;;;0.30;0.30;;;;;;;14.61;100.00;98034.25;5091521;28;20578;-77
2020/12/23 05:19:38;;;;;;;0.53;0.37;;;;;;;14.87;100.00;98031.22;5083438;28;20208;-76
2020/12/23 05:22:06;;;;;;;0.43;0.43;;;;;;;14.87;100.00;98029.38;5088997;28;20210;-76
2020/12/23 05:24:34;;;;;;;0.63;0.63;;;;;;;14.91;100.00;98032.41;5088186;28;20276;-76
2020/12/23 05:27:01;;;;;;;0.73;0.50;;;;;;;14.95;100.00;98034.41;5083133;28;20204;-76
2020/12/23 05:29:28;;;;;;;0.73;0.67;;;;;;;14.84;100.00;98042.44;5087729;28;20212;-77
2020/12/23 05:31:56;;;;;;;1.20;0.50;;;;;;;15.05;100.00;98033.88;5089711;28;20249;-76
2020/12/23 05:34:23;;;;;;;0.50;0.50;;;;;;;-139.38;100.00;82663.19;5091983;28;20703;-77
2020/12/23 05:36:51;;;;;;;1.30;0.40;;;;;;;15.14;100.00;98027.16;5083880;28;20220;-76
2020/12/23 05:39:18;;;;;;;0.30;0.30;;;;;;;-139.38;100.00;63230.50;5089841;28;20196;-76
2020/12/23 05:41:46;;;;;;;1.10;0.50;;;;;;;-139.38;100.00;63230.50;5082233;28;20246;-76
2020/12/23 05:44:20;;;;;;;0.53;0.40;;;;;;;-139.38;100.00;63230.50;5080341;28;20303;-76
2020/12/23 05:46:48;;;;;;;1.33;0.60;;;;;;;-139.38;100.00;63230.50;5093114;28;20189;-76
2020/12/23 05:49:16;;;;;;;0.50;0.40;;;;;;;-139.38;100.00;63230.50;5085925;28;20278;-75
2020/12/23 05:51:44;;;;;;;0.40;0.40;;;;;;;15.04;100.00;98016.94;5079291;28;20661;-76
2020/12/23 05:54:11;;;;;;;0.97;0.50;;;;;;;15.12;100.00;98013.94;5089597;28;20628;-78
2020/12/23 05:56:38;;;;;;;0.53;0.53;;;;;;;15.05;100.00;98023.13;5078808;28;20689;-76
2020/12/23 05:59:06;;;;;;;0.63;0.53;;;;;;;15.04;100.00;98016.94;5079749;28;20653;-78
2020/12/23 06:01:35;;;;;;;0.40;0.40;;;;;;;15.16;100.00;98011.59;5086668;28;20197;-77
2020/12/23 06:04:06;;;;;;;0.63;0.57;;;;;;;15.04;100.00;97997.31;5081078;28;20719;-77
2020/12/23 06:06:35;;;;;;;1.90;0.50;;;;;;;15.06;100.00;98008.66;5087471;28;20606;-77
2020/12/23 06:09:04;;;;;;;0.40;0.40;;;;;;;15.11;100.00;98004.22;5077769;28;20197;-77
2020/12/23 06:11:32;;;;;;;0.57;0.50;;;;;;;15.18;100.00;97998.72;5081754;28;20201;-76
2020/12/23 06:14:13;;;;;;;0.40;0.40;;;;;;;15.27;100.00;97998.19;5090673;28;20697;-78
2020/12/23 06:16:41;;;;;;;0.50;0.47;;;;;;;15.26;100.00;97998.41;5082419;28;20224;-78
2020/12/23 06:19:10;;;;;;;0.47;0.47;;;;;;;15.24;100.00;97985.19;5088922;28;20201;-78
2020/12/23 06:21:38;;;;;;;0.43;0.43;;;;;;;15.19;100.00;97992.34;5073656;28;20269;-78
2020/12/23 06:24:07;;;;;;;0.60;0.53;;;;;;;15.19;100.00;97997.72;5088836;28;20225;-78
2020/12/23 06:26:35;;;;;;;0.50;0.30;;;;;;;15.24;100.00;97989.78;5081955;28;20648;-78
2020/12/23 06:29:05;;;;;;;0.30;0.30;;;;;;;15.14;100.00;97998.38;5077123;28;20200;-78
2020/12/23 06:31:39;;;;;;;0.50;0.50;;;;;;;15.10;100.00;97993.69;5084352;28;20238;-78
2020/12/23 06:34:06;;;;;;;0.50;0.50;;;;;;;15.10;100.00;97985.63;5074285;28;20228;-78
2020/12/23 06:36:34;;;;;;;1.07;0.60;;;;;;;15.10;100.00;97988.31;5085331;28;20220;-78
2020/12/23 06:39:21;;;;;;;0.93;0.70;;;;;;;15.06;100.00;97990.66;5087902;28;20208;-78
2020/12/23 06:41:49;;;;;;;0.53;0.50;;;;;;;15.06;100.00;97992.50;5081415;28;20196;-79
2020/12/23 06:44:16;;;;;;;0.50;0.50;;;;;;;15.18;100.00;97983.44;5079925;28;20253;-78
2020/12/23 06:47:08;;;;;;;0.57;0.57;;;;;;;15.00;100.00;97988.06;5082747;28;20247;-78
2020/12/23 06:49:36;;;;;;;0.70;0.50;;;;;;;15.01;100.00;97979.78;5078239;28;20232;-79
2020/12/23 06:52:24;;;;;;;0.60;0.53;;;;;;;15.03;100.00;97985.72;5085469;28;20592;-78
2020/12/23 06:54:53;;;;;;;0.47;0.47;;;;;;;15.07;100.00;97980.72;5078982;28;20705;-78
2020/12/23 06:57:55;;;;;;;1.53;0.60;;;;;;;14.90;100.00;97985.91;5085359;28;20207;-78
2020/12/23 07:00:35;;;;;;;0.60;0.60;;;;;;;15.03;100.00;97984.91;5071562;28;20193;-78
2020/12/23 07:03:04;;;;;;;0.60;0.50;;;;;;;15.08;100.00;97985.03;5084718;28;20570;-78
2020/12/23 07:05:42;;;;;;;0.93;0.60;;;;;;;15.10;100.00;97982.94;5084598;28;20198;-78
2020/12/23 07:08:09;;;;;;;1.30;0.50;;;;;;;15.01;100.00;97974.41;5075199;28;20542;-78
2020/12/23 07:10:39;;;;;;;1.23;0.50;;;;;;;15.03;100.00;97974.16;5080614;28;20196;-78
2020/12/23 07:13:07;;;;;;;0.50;0.50;;;;;;;15.14;100.00;97978.75;5083646;28;20217;-78
2020/12/23 07:15:35;;;;;;;0.60;0.57;;;;;;;15.00;100.00;97975.44;5072754;28;20242;-79
2020/12/23 07:18:04;;;;;;;0.40;0.40;;;;;;;14.94;100.00;97984.41;5073910;28;20201;-77
2020/12/23 07:20:32;;;;;;;0.40;0.40;;;;;;;15.07;100.00;97986.09;5080111;28;20288;-77
2020/12/23 07:23:06;;;;;;;1.07;0.40;;;;;;;15.02;100.00;97985.94;5076578;28;20485;-79
2020/12/23 07:25:37;;;;;;;0.40;0.40;;;;;;;15.13;100.00;97988.69;5070252;28;20193;-77
2020/12/23 07:28:07;;;;;;;0.60;0.43;;;;;;;14.90;100.00;97985.91;5076533;28;20201;-78
2020/12/23 07:30:36;;;;;;;1.80;0.40;;;;;;;15.17;100.00;97983.66;5073466;28;20578;-77
2020/12/23 07:33:06;;;;;;;0.40;0.40;;;;;;;15.05;100.00;97986.31;5074077;28;20237;-84
2020/12/23 07:35:34;;;;;;;0.73;0.40;;;;;;;15.18;100.00;97985.28;5076852;28;20592;-79
2020/12/23 07:38:02;;;;;;;0.67;0.40;;;;;;;15.09;100.00;97992.06;5079439;28;20207;-80
2020/12/23 07:40:30;;;;;;;0.63;0.50;;;;;;;15.22;100.00;97991.84;5086655;28;20200;-77
2020/12/23 07:42:58;;;;;;;0.70;0.50;;;;;;;15.33;100.00;97988.38;5083258;28;20222;-79
2020/12/23 07:45:27;;;;;;;0.73;0.40;;;;;;;15.32;100.00;97990.25;5082416;28;20573;-78
2020/12/23 07:47:55;;;;;;;1.00;0.60;;;;;;;15.23;100.00;97991.63;5091855;28;20213;-74
2020/12/23 07:50:23;;;;;;;1.13;0.67;;;;;;;15.21;100.00;97991.06;5084306;28;20201;-76
2020/12/23 07:52:51;;;;;;;0.70;0.50;;;;;;;15.50;100.00;97981.31;5074089;28;20221;-78
2020/12/23 07:55:19;;;;;;;0.63;0.43;;;;;;;15.47;100.00;97989.81;5085302;28;20227;-75
2020/12/23 07:57:47;;;;;;;0.50;0.43;;;;;;;15.34;100.00;97987.38;5078650;28;20207;-75
2020/12/23 08:00:16;;;;;;;1.40;0.63;;;;;;;15.43;100.00;97991.34;5087475;28;20200;-83
2020/12/23 08:02:43;;;;;;;0.67;0.40;;;;;;;15.45;100.00;97986.56;5084929;28;20249;-76
2020/12/23 08:05:12;;;;;;;0.70;0.50;;;;;;;15.39;100.00;97998.22;5080460;28;20205;-77
2020/12/23 08:07:40;;;;;;;0.90;0.50;;;;;;;15.38;100.00;97992.03;5100464;28;20188;-77
2020/12/23 08:10:08;;;;;;;0.80;0.60;;;;;;;15.66;100.00;97994.06;5094406;28;20543;-78
2020/12/23 08:12:35;;;;;;;2.03;0.60;;;;;;;15.69;100.00;98001.66;5097232;28;20188;-74
2020/12/23 08:15:07;;;;;;;0.67;0.53;;;;;;;15.62;100.00;97998.25;5080376;28;20206;-73
2020/12/23 08:17:35;;;;;;;0.87;0.60;;;;;;;15.52;100.00;97998.03;5088033;28;20712;-74
2020/12/23 08:20:04;;;;;;;0.40;0.40;;;;;;;15.54;100.00;97991.34;5087005;28;20670;-77
2020/12/23 08:22:32;;;;;;;0.97;0.70;;;;;;;15.52;100.00;97998.03;5085014;28;20205;-74
2020/12/23 08:25:07;;;;;;;0.93;0.53;;;;;;;15.60;100.00;97993.09;5092878;28;20197;-74
2020/12/23 08:27:34;;;;;;;0.67;0.43;;;;;;;15.46;100.00;97996.25;5079030;28;20208;-73
2020/12/23 08:30:03;;;;;;;1.73;0.90;;;;;;;15.66;100.00;97989.47;5063820;28;20201;-73
2020/12/23 08:32:36;;;;;;;0.50;0.50;;;;;;;15.47;100.00;98001.41;5077683;28;20214;-74
2020/12/23 08:35:05;;;;;;;3.07;0.57;;;;;;;15.80;100.00;98000.88;5078071;28;20197;-74
2020/12/23 08:37:35;;;;;;;1.47;0.67;;;;;;;15.65;100.00;97998.63;5090867;28;20197;-74
2020/12/23 08:40:02;;;;;;;1.87;0.80;;;;;;;15.80;100.00;97998.16;5086382;28;20194;-74
2020/12/23 08:42:29;;;;;;;0.73;0.40;;;;;;;15.78;100.00;97992.19;5082080;28;20204;-74
2020/12/23 08:44:57;;;;;;;1.33;0.80;;;;;;;15.78;100.00;97998.41;5075181;28;20213;-73
2020/12/23 08:47:26;;;;;;;0.67;0.60;;;;;;;15.82;100.00;97994.19;5090165;28;20544;-74
2020/12/23 08:49:55;;;;;;;0.77;0.70;;;;;;;15.74;100.00;97999.09;5095383;28;20200;-74
2020/12/23 08:52:24;;;;;;;0.50;0.40;;;;;;;15.96;100.00;97992.88;5089294;28;20312;-73
2020/12/23 08:54:51;;;;;;;0.77;0.50;;;;;;;15.95;100.00;97995.84;5091559;28;20201;-74
2020/12/23 08:57:24;;;;;;;0.80;0.50;;;;;;;16.10;100.00;97980.81;5074679;28;20312;-74
2020/12/23 08:59:52;;;;;;;1.87;0.80;;;;;;;16.14;100.00;97992.75;5085120;28;20208;-74
2020/12/23 09:02:19;;;;;;;1.00;0.90;;;;;;;15.83;100.00;97981.53;5094520;28;20197;-74
2020/12/23 09:04:46;;;;;;;0.43;0.43;;;;;;;16.14;100.00;97987.38;5088232;28;20209;-74
2020/12/23 09:07:21;;;;;;;1.20;0.60;;;;;;;16.16;100.00;97989.84;5086479;28;20195;-74
2020/12/23 09:09:48;;;;;;;1.40;0.50;;;;;;;16.39;100.00;97985.25;5082979;28;20289;-74
2020/12/23 09:12:24;;;;;;;0.53;0.40;;;;;;;16.45;100.00;97984.28;5066643;28;20635;-74
2020/12/23 09:14:51;;;;;;;0.97;0.57;;;;;;;16.59;100.00;97979.44;5076895;28;20212;-75
2020/12/23 09:17:23;;;;;;;1.10;0.50;;;;;;;16.44;100.00;97981.81;5094298;28;20221;-74
2020/12/23 09:19:54;;;;;;;1.17;0.60;;;;;;;16.47;100.00;97986.75;5087921;28;20218;-75
2020/12/23 09:22:30;;;;;;;0.97;0.50;;;;;;;16.51;100.00;97988.72;5092728;28;20284;-74
2020/12/23 09:25:18;;;;;;;0.67;0.47;;;;;;;16.35;100.00;97983.22;5071366;28;20214;-75
2020/12/23 09:27:46;;;;;;;0.43;0.43;;;;;;;16.32;100.00;97975.63;5080199;28;20295;-74
2020/12/23 09:30:13;;;;;;;0.50;0.50;;;;;;;16.29;100.00;97968.03;5094536;28;20613;-73
2020/12/23 09:32:53;;;;;;;0.40;0.40;;;;;;;16.46;100.00;97983.22;5090092;28;20225;-75
2020/12/23 09:35:23;;;;;;;0.50;0.50;;;;;;;16.37;100.00;97976.53;5088197;28;20365;-76
2020/12/23 09:38:02;;;;;;;0.57;0.57;;;;;;;16.41;100.00;97974.25;5089481;28;20213;-76
2020/12/23 09:40:29;;;;;;;2.23;0.50;;;;;;;16.43;100.00;97970.25;5077123;28;20204;-75
2020/12/23 09:42:55;;;;;;;1.90;0.50;;;;;;;16.60;100.00;97971.13;5075828;28;20224;-75
2020/12/23 09:45:22;;;;;;;0.50;0.50;;;;;;;16.61;100.00;97970.06;5093895;28;20662;-74
2020/12/23 09:47:49;;;;;;;0.83;0.70;;;;;;;16.65;100.00;97975.78;5090469;28;20197;-73
2020/12/23 09:50:16;;;;;;;0.80;0.60;;;;;;;16.48;100.00;97981.13;5094122;28;20231;-74
2020/12/23 09:52:43;;;;;;;0.60;0.50;;;;;;;16.54;100.00;97973.97;5086321;28;20301;-74
2020/12/23 09:55:10;;;;;;;0.90;0.50;;;;;;;16.81;100.00;97967.75;5073548;28;20396;-74
2020/12/23 09:57:37;;;;;;;0.70;0.63;;;;;;;16.68;100.00;97951.91;5089762;28;20671;-74
2020/12/23 10:00:06;;;;;;;0.40;0.40;;;;;;;16.87;100.00;97956.00;5092730;28;20207;-75
2020/12/23 10:02:33;;;;;;;0.73;0.73;;;;;;;16.76;100.00;97953.38;5083344;28;20209;-75
2020/12/23 10:05:00;;;;;;;1.17;0.73;;;;;;;16.64;100.00;97939.13;5092133;28;20211;-74
2020/12/23 10:07:27;;;;;;;0.73;0.60;;;;;;;16.73;100.00;97946.59;5083978;28;20214;-74
2020/12/23 10:09:53;;;;;;;0.73;0.60;;;;;;;16.82;100.00;97934.34;5072739;28;20204;-74
2020/12/23 10:12:23;;;;;;;0.77;0.70;;;;;;;16.59;100.00;97930.94;5087121;28;20210;-75
2020/12/23 10:14:50;;;;;;;1.90;0.70;;;;;;;16.30;100.00;97938.16;5090804;28;20233;-75
2020/12/23 10:17:17;;;;;;;0.53;0.50;;;;;;;16.58;100.00;97935.53;5083468;28;20226;-75
2020/12/23 10:19:44;;;;;;;0.63;0.60;;;;;;;16.54;100.00;97925.47;5088212;28;20208;-75
2020/12/23 10:22:11;;;;;;;0.87;0.70;;;;;;;16.48;100.00;97919.19;5079860;28;20902;-75
2020/12/23 10:24:37;;;;;;;0.70;0.50;;;;;;;16.78;100.00;97919.75;5072345;28;20304;-75
2020/12/23 10:27:04;;;;;;;1.60;0.60;;;;;;;17.05;100.00;97919.94;5083827;28;20596;-75
2020/12/23 10:29:32;;;;;;;0.73;0.57;;;;;;;16.93;100.00;97908.41;5089227;28;20213;-76
2020/12/23 10:31:59;;;;;;;0.57;0.57;;;;;;;17.00;100.00;97906.34;5085281;28;20295;-75
2020/12/23 10:34:26;;;;;;;0.60;0.50;;;;;;;17.21;97.29;97909.16;5088648;28;20233;-75
2020/12/23 10:36:53;;;;;;;1.43;0.70;;;;;;;17.22;100.00;97896.50;5088065;28;20696;-76
2020/12/23 10:39:19;;;;;;;0.87;0.67;;;;;;;17.47;96.58;97903.13;5072497;28;20201;-76
2020/12/23 10:41:46;;;;;;;0.80;0.50;;;;;;;17.34;99.49;97898.06;5080686;28;20215;-75
2020/12/23 10:44:13;;;;;;;0.97;0.70;;;;;;;17.60;95.11;97885.78;5085398;28;20282;-75
2020/12/23 10:46:41;;;;;;;0.63;0.50;;;;;;;17.56;95.22;97881.94;5088060;28;20225;-74
2020/12/23 10:49:08;;;;;;;1.17;0.80;;;;;;;17.55;93.88;97883.84;5089382;28;20208;-75
2020/12/23 10:51:35;;;;;;;0.70;0.60;;;;;;;17.47;95.08;97862.66;5080638;28;20205;-75
2020/12/23 10:54:01;;;;;;;0.70;0.70;;;;;;;17.46;96.33;97865.59;5071940;28;20251;-75
2020/12/23 10:56:28;;;;;;;1.27;0.80;;;;;;;17.64;95.86;97863.44;5085335;28;20632;-76
2020/12/23 10:58:55;;;;;;;2.00;0.73;;;;;;;17.31;100.00;97866.16;5089900;28;20207;-75
2020/12/23 11:01:22;;;;;;;0.67;0.67;;;;;;;17.55;97.41;97873.03;5083963;28;20203;-75
2020/12/23 11:03:50;;;;;;;0.80;0.70;;;;;;;17.40;99.93;97861.19;5084269;28;20247;-75
2020/12/23 11:06:16;;;;;;;0.60;0.60;;;;;;;17.63;99.55;97852.91;5080364;28;20654;-75
2020/12/23 11:08:43;;;;;;;1.20;0.70;;;;;;;17.93;94.92;97854.09;5071538;28;20300;-75
2020/12/23 11:11:13;;;;;;;2.17;0.50;;;;;;;17.67;97.94;97848.63;5077937;28;20203;-75
2020/12/23 11:13:41;;;;;;;0.50;0.50;;;;;;;17.59;96.97;97846.38;5081109;28;20232;-75
2020/12/23 11:16:12;;;;;;;0.70;0.50;;;;;;;17.63;98.73;97844.81;5081739;28;20323;-75
2020/12/23 11:18:39;;;;;;;1.13;0.60;;;;;;;17.69;99.03;97838.41;5086199;28;20199;-75
2020/12/23 11:21:06;;;;;;;0.60;0.50;;;;;;;17.43;100.00;97831.84;5069448;28;20215;-76
2020/12/23 11:23:33;;;;;;;1.80;0.90;;;;;;;17.35;100.00;97826.84;5071423;28;20781;-74
2020/12/23 11:26:00;;;;;;;0.60;0.60;;;;;;;17.21;100.00;97833.66;5072363;28;20195;-74
2020/12/23 11:28:28;;;;;;;0.40;0.40;;;;;;;17.04;100.00;97827.44;5076809;28;20234;-73